sensor_id;sensor_type;location;lat;lon;timestamp;temperature;humidity
58933;DHT22;44716;51.022;6.818;2023-04-03T00:01:29;24.20;54.30
58933;DHT22;44716;51.022;6.818;2023-04-03T00:03:57;24.20;54.30
58933;DHT22;44716;51.022;6.818;2023-04-03T00:06:23;24.20;54.30
58933;DHT22;44716;51.022;6.818;2023-04-03T00:08:48;24.10;54.30
58933;DHT22;44716;51.022;6.818;2023-04-03T00:11:14;24.10;54.30
58933;DHT22;44716;51.022;6.818;2023-04-03T00:13:40;24.10;55.00
58933;DHT22;44716;51.022;6.818;2023-04-03T00:16:06;24.10;54.40
58933;DHT22;44716;51.022;6.818;2023-04-03T00:18:32;24.10;54.50
58933;DHT22;44716;51.022;6.818;2023-04-03T00:20:57;24.00;54.40
58933;DHT22;44716;51.022;6.818;2023-04-03T00:23:23;24.00;54.50
58933;DHT22;44716;51.022;6.818;2023-04-03T00:25:49;24.00;54.50
58933;DHT22;44716;51.022;6.818;2023-04-03T00:28:15;23.90;54.50
58933;DHT22;44716;51.022;6.818;2023-04-03T00:30:40;23.90;54.50
58933;DHT22;44716;51.022;6.818;2023-04-03T00:33:06;23.90;54.60
58933;DHT22;44716;51.022;6.818;2023-04-03T00:35:32;23.90;54.70
58933;DHT22;44716;51.022;6.818;2023-04-03T00:37:59;23.80;54.60
58933;DHT22;44716;51.022;6.818;2023-04-03T00:40:25;23.80;54.60
58933;DHT22;44716;51.022;6.818;2023-04-03T00:42:54;23.80;54.60
58933;DHT22;44716;51.022;6.818;2023-04-03T00:45:54;23.70;54.70
58933;DHT22;44716;51.022;6.818;2023-04-03T00:48:17;23.70;54.70
58933;DHT22;44716;51.022;6.818;2023-04-03T00:50:43;23.70;54.80
58933;DHT22;44716;51.022;6.818;2023-04-03T00:53:11;23.70;55.50
58933;DHT22;44716;51.022;6.818;2023-04-03T00:55:40;23.60;54.90
58933;DHT22;44716;51.022;6.818;2023-04-03T00:58:06;23.60;54.90
58933;DHT22;44716;51.022;6.818;2023-04-03T01:00:33;23.60;55.00
58933;DHT22;44716;51.022;6.818;2023-04-03T01:02:59;23.50;55.00
58933;DHT22;44716;51.022;6.818;2023-04-03T01:05:25;23.50;55.00
58933;DHT22;44716;51.022;6.818;2023-04-03T01:07:51;23.50;55.00
58933;DHT22;44716;51.022;6.818;2023-04-03T01:10:17;23.40;55.00
58933;DHT22;44716;51.022;6.818;2023-04-03T01:12:45;23.40;55.10
58933;DHT22;44716;51.022;6.818;2023-04-03T01:15:15;23.40;55.10
58933;DHT22;44716;51.022;6.818;2023-04-03T01:17:48;23.40;55.10
58933;DHT22;44716;51.022;6.818;2023-04-03T01:25:37;23.30;55.30
58933;DHT22;44716;51.022;6.818;2023-04-03T01:28:03;23.30;55.30
58933;DHT22;44716;51.022;6.818;2023-04-03T01:30:37;23.30;55.40
58933;DHT22;44716;51.022;6.818;2023-04-03T01:33:06;23.20;55.30
58933;DHT22;44716;51.022;6.818;2023-04-03T01:35:31;23.20;55.40
58933;DHT22;44716;51.022;6.818;2023-04-03T01:38:00;23.20;55.40
58933;DHT22;44716;51.022;6.818;2023-04-03T01:40:25;23.10;55.40
58933;DHT22;44716;51.022;6.818;2023-04-03T01:42:51;23.10;55.40
58933;DHT22;44716;51.022;6.818;2023-04-03T01:45:17;23.10;55.50
58933;DHT22;44716;51.022;6.818;2023-04-03T01:47:42;23.10;55.50
58933;DHT22;44716;51.022;6.818;2023-04-03T01:50:08;23.00;55.50
58933;DHT22;44716;51.022;6.818;2023-04-03T01:52:34;23.00;55.50
58933;DHT22;44716;51.022;6.818;2023-04-03T01:54:59;23.00;55.50
58933;DHT22;44716;51.022;6.818;2023-04-03T01:57:25;23.00;55.60
58933;DHT22;44716;51.022;6.818;2023-04-03T01:59:50;22.90;55.50
58933;DHT22;44716;51.022;6.818;2023-04-03T02:02:16;22.90;55.50
58933;DHT22;44716;51.022;6.818;2023-04-03T02:04:44;22.90;55.60
58933;DHT22;44716;51.022;6.818;2023-04-03T02:07:10;22.90;55.60
58933;DHT22;44716;51.022;6.818;2023-04-03T02:09:35;22.90;55.60
58933;DHT22;44716;51.022;6.818;2023-04-03T02:15:04;22.80;55.60
58933;DHT22;44716;51.022;6.818;2023-04-03T02:17:30;22.80;55.60
58933;DHT22;44716;51.022;6.818;2023-04-03T02:19:55;22.80;55.70
58933;DHT22;44716;51.022;6.818;2023-04-03T02:22:21;22.80;55.70
58933;DHT22;44716;51.022;6.818;2023-04-03T02:24:46;22.70;55.70
58933;DHT22;44716;51.022;6.818;2023-04-03T02:27:12;22.70;55.70
58933;DHT22;44716;51.022;6.818;2023-04-03T02:29:37;22.70;55.70
58933;DHT22;44716;51.022;6.818;2023-04-03T02:32:03;22.60;55.70
58933;DHT22;44716;51.022;6.818;2023-04-03T02:34:28;22.70;55.80
58933;DHT22;44716;51.022;6.818;2023-04-03T02:36:54;22.70;55.80
58933;DHT22;44716;51.022;6.818;2023-04-03T02:39:20;22.70;55.80
58933;DHT22;44716;51.022;6.818;2023-04-03T02:41:45;22.60;55.80
58933;DHT22;44716;51.022;6.818;2023-04-03T02:44:11;22.60;55.90
58933;DHT22;44716;51.022;6.818;2023-04-03T02:46:36;22.60;55.90
58933;DHT22;44716;51.022;6.818;2023-04-03T02:49:02;22.60;55.90
58933;DHT22;44716;51.022;6.818;2023-04-03T02:51:34;22.50;55.80
58933;DHT22;44716;51.022;6.818;2023-04-03T02:53:59;22.50;55.90
58933;DHT22;44716;51.022;6.818;2023-04-03T02:56:25;22.50;55.90
58933;DHT22;44716;51.022;6.818;2023-04-03T02:58:52;22.50;55.90
58933;DHT22;44716;51.022;6.818;2023-04-03T03:01:20;22.50;55.90
58933;DHT22;44716;51.022;6.818;2023-04-03T03:03:45;22.50;56.00
58933;DHT22;44716;51.022;6.818;2023-04-03T03:06:12;22.40;55.90
58933;DHT22;44716;51.022;6.818;2023-04-03T03:08:41;22.40;56.00
58933;DHT22;44716;51.022;6.818;2023-04-03T03:11:07;22.40;55.90
58933;DHT22;44716;51.022;6.818;2023-04-03T03:13:33;22.40;56.00
58933;DHT22;44716;51.022;6.818;2023-04-03T03:15:59;22.40;56.00
58933;DHT22;44716;51.022;6.818;2023-04-03T03:18:24;22.40;56.00
58933;DHT22;44716;51.022;6.818;2023-04-03T03:20:51;22.30;56.00
58933;DHT22;44716;51.022;6.818;2023-04-03T03:23:17;22.30;56.00
58933;DHT22;44716;51.022;6.818;2023-04-03T03:25:42;22.30;56.10
58933;DHT22;44716;51.022;6.818;2023-04-03T03:28:08;22.30;56.10
58933;DHT22;44716;51.022;6.818;2023-04-03T03:30:34;22.30;56.10
58933;DHT22;44716;51.022;6.818;2023-04-03T03:33:00;22.20;56.10
58933;DHT22;44716;51.022;6.818;2023-04-03T03:35:26;22.30;56.20
58933;DHT22;44716;51.022;6.818;2023-04-03T03:37:51;22.20;56.10
58933;DHT22;44716;51.022;6.818;2023-04-03T03:40:17;22.20;56.20
58933;DHT22;44716;51.022;6.818;2023-04-03T03:42:43;22.20;56.20
58933;DHT22;44716;51.022;6.818;2023-04-03T03:45:08;22.20;56.20
58933;DHT22;44716;51.022;6.818;2023-04-03T03:47:34;22.20;56.20
58933;DHT22;44716;51.022;6.818;2023-04-03T03:49:59;22.20;56.20
58933;DHT22;44716;51.022;6.818;2023-04-03T03:52:25;22.20;56.30
58933;DHT22;44716;51.022;6.818;2023-04-03T03:54:51;22.20;56.30
58933;DHT22;44716;51.022;6.818;2023-04-03T03:57:17;22.10;56.20
58933;DHT22;44716;51.022;6.818;2023-04-03T03:59:42;22.10;56.30
58933;DHT22;44716;51.022;6.818;2023-04-03T04:02:10;22.10;56.30
58933;DHT22;44716;51.022;6.818;2023-04-03T04:04:36;22.10;56.30
58933;DHT22;44716;51.022;6.818;2023-04-03T04:07:01;22.00;56.20
58933;DHT22;44716;51.022;6.818;2023-04-03T04:09:27;22.00;56.20
58933;DHT22;44716;51.022;6.818;2023-04-03T04:11:53;22.00;56.30
58933;DHT22;44716;51.022;6.818;2023-04-03T04:14:18;22.00;56.30
58933;DHT22;44716;51.022;6.818;2023-04-03T04:16:46;22.00;56.30
58933;DHT22;44716;51.022;6.818;2023-04-03T04:19:11;22.00;56.30
58933;DHT22;44716;51.022;6.818;2023-04-03T04:21:38;22.00;56.30
58933;DHT22;44716;51.022;6.818;2023-04-03T04:24:04;22.00;56.30
58933;DHT22;44716;51.022;6.818;2023-04-03T04:26:30;21.90;56.30
58933;DHT22;44716;51.022;6.818;2023-04-03T04:28:59;21.90;56.30
58933;DHT22;44716;51.022;6.818;2023-04-03T04:31:26;21.90;56.40
58933;DHT22;44716;51.022;6.818;2023-04-03T04:33:52;21.90;56.40
58933;DHT22;44716;51.022;6.818;2023-04-03T04:36:19;21.90;56.40
58933;DHT22;44716;51.022;6.818;2023-04-03T04:38:45;21.90;56.40
58933;DHT22;44716;51.022;6.818;2023-04-03T04:41:11;21.90;56.50
58933;DHT22;44716;51.022;6.818;2023-04-03T04:43:39;21.90;56.50
58933;DHT22;44716;51.022;6.818;2023-04-03T04:46:09;21.80;56.40
58933;DHT22;44716;51.022;6.818;2023-04-03T04:48:36;21.80;56.50
58933;DHT22;44716;51.022;6.818;2023-04-03T04:51:02;21.80;56.50
58933;DHT22;44716;51.022;6.818;2023-04-03T04:53:28;21.80;56.50
58933;DHT22;44716;51.022;6.818;2023-04-03T04:55:53;21.80;56.50
58933;DHT22;44716;51.022;6.818;2023-04-03T04:58:19;21.80;56.50
58933;DHT22;44716;51.022;6.818;2023-04-03T05:00:45;21.80;56.50
58933;DHT22;44716;51.022;6.818;2023-04-03T05:03:12;21.80;56.50
58933;DHT22;44716;51.022;6.818;2023-04-03T05:05:38;21.70;56.60
58933;DHT22;44716;51.022;6.818;2023-04-03T05:08:04;21.70;56.60
58933;DHT22;44716;51.022;6.818;2023-04-03T05:10:32;21.70;56.60
58933;DHT22;44716;51.022;6.818;2023-04-03T05:12:58;21.70;56.60
58933;DHT22;44716;51.022;6.818;2023-04-03T05:15:23;21.70;56.60
58933;DHT22;44716;51.022;6.818;2023-04-03T05:17:49;21.70;56.60
58933;DHT22;44716;51.022;6.818;2023-04-03T05:20:15;21.60;56.60
58933;DHT22;44716;51.022;6.818;2023-04-03T05:22:44;21.70;56.70
58933;DHT22;44716;51.022;6.818;2023-04-03T05:25:10;21.60;56.70
58933;DHT22;44716;51.022;6.818;2023-04-03T05:27:35;21.60;56.80
58933;DHT22;44716;51.022;6.818;2023-04-03T05:30:01;21.60;56.80
58933;DHT22;44716;51.022;6.818;2023-04-03T05:32:27;21.60;56.80
58933;DHT22;44716;51.022;6.818;2023-04-03T05:34:52;21.60;56.80
58933;DHT22;44716;51.022;6.818;2023-04-03T05:37:18;21.60;56.90
58933;DHT22;44716;51.022;6.818;2023-04-03T05:39:44;21.60;56.90
58933;DHT22;44716;51.022;6.818;2023-04-03T05:42:09;21.60;57.00
58933;DHT22;44716;51.022;6.818;2023-04-03T05:44:36;21.60;57.00
58933;DHT22;44716;51.022;6.818;2023-04-03T05:47:02;21.60;57.00
58933;DHT22;44716;51.022;6.818;2023-04-03T05:49:28;21.60;57.10
58933;DHT22;44716;51.022;6.818;2023-04-03T05:51:53;21.50;57.10
58933;DHT22;44716;51.022;6.818;2023-04-03T05:54:23;21.60;57.10
58933;DHT22;44716;51.022;6.818;2023-04-03T05:56:50;21.60;57.10
58933;DHT22;44716;51.022;6.818;2023-04-03T05:59:16;21.50;57.10
58933;DHT22;44716;51.022;6.818;2023-04-03T06:01:41;21.50;57.10
58933;DHT22;44716;51.022;6.818;2023-04-03T06:04:10;21.50;57.20
58933;DHT22;44716;51.022;6.818;2023-04-03T06:07:09;21.50;57.20
58933;DHT22;44716;51.022;6.818;2023-04-03T06:09:34;21.50;57.20
58933;DHT22;44716;51.022;6.818;2023-04-03T06:12:04;21.50;57.20
58933;DHT22;44716;51.022;6.818;2023-04-03T06:14:30;21.50;57.30
58933;DHT22;44716;51.022;6.818;2023-04-03T06:16:56;21.50;57.30
58933;DHT22;44716;51.022;6.818;2023-04-03T06:19:21;21.50;57.30
58933;DHT22;44716;51.022;6.818;2023-04-03T06:21:47;21.50;57.30
58933;DHT22;44716;51.022;6.818;2023-04-03T06:24:16;21.50;57.80
58933;DHT22;44716;51.022;6.818;2023-04-03T06:26:43;21.50;57.30
58933;DHT22;44716;51.022;6.818;2023-04-03T06:29:09;21.70;57.10
58933;DHT22;44716;51.022;6.818;2023-04-03T06:31:34;22.00;57.20
58933;DHT22;44716;51.022;6.818;2023-04-03T06:34:02;22.10;57.00
58933;DHT22;44716;51.022;6.818;2023-04-03T06:36:28;22.20;57.10
58933;DHT22;44716;51.022;6.818;2023-04-03T06:38:54;22.20;57.20
58933;DHT22;44716;51.022;6.818;2023-04-03T06:41:19;22.30;57.40
58933;DHT22;44716;51.022;6.818;2023-04-03T06:43:46;22.30;57.60
58933;DHT22;44716;51.022;6.818;2023-04-03T06:46:18;22.30;57.60
58933;DHT22;44716;51.022;6.818;2023-04-03T06:48:44;22.30;57.60
58933;DHT22;44716;51.022;6.818;2023-04-03T06:51:14;22.30;57.50
58933;DHT22;44716;51.022;6.818;2023-04-03T06:53:40;22.30;57.60
58933;DHT22;44716;51.022;6.818;2023-04-03T06:56:07;22.30;57.60
58933;DHT22;44716;51.022;6.818;2023-04-03T06:58:33;22.30;57.60
58933;DHT22;44716;51.022;6.818;2023-04-03T07:00:58;22.30;57.60
58933;DHT22;44716;51.022;6.818;2023-04-03T07:03:27;22.30;57.60
58933;DHT22;44716;51.022;6.818;2023-04-03T07:05:53;22.30;57.50
58933;DHT22;44716;51.022;6.818;2023-04-03T07:08:18;22.30;57.50
58933;DHT22;44716;51.022;6.818;2023-04-03T07:10:44;22.40;57.50
58933;DHT22;44716;51.022;6.818;2023-04-03T07:13:09;22.30;57.50
58933;DHT22;44716;51.022;6.818;2023-04-03T07:15:35;22.30;57.40
58933;DHT22;44716;51.022;6.818;2023-04-03T07:18:03;22.30;57.00
58933;DHT22;44716;51.022;6.818;2023-04-03T07:20:31;22.30;56.80
58933;DHT22;44716;51.022;6.818;2023-04-03T07:22:57;22.30;57.50
58933;DHT22;44716;51.022;6.818;2023-04-03T07:25:22;22.30;57.60
58933;DHT22;44716;51.022;6.818;2023-04-03T07:27:51;22.30;57.60
58933;DHT22;44716;51.022;6.818;2023-04-03T07:30:17;22.30;57.60
58933;DHT22;44716;51.022;6.818;2023-04-03T07:32:42;22.30;57.60
58933;DHT22;44716;51.022;6.818;2023-04-03T07:35:08;22.30;57.60
58933;DHT22;44716;51.022;6.818;2023-04-03T07:37:34;22.30;57.60
58933;DHT22;44716;51.022;6.818;2023-04-03T07:40:00;22.20;57.50
58933;DHT22;44716;51.022;6.818;2023-04-03T07:42:28;22.20;55.30
58933;DHT22;44716;51.022;6.818;2023-04-03T07:44:54;22.20;57.00
58933;DHT22;44716;51.022;6.818;2023-04-03T07:47:20;22.20;57.60
58933;DHT22;44716;51.022;6.818;2023-04-03T07:49:46;22.20;57.50
58933;DHT22;44716;51.022;6.818;2023-04-03T07:52:12;22.20;56.60
58933;DHT22;44716;51.022;6.818;2023-04-03T07:54:40;22.20;57.60
58933;DHT22;44716;51.022;6.818;2023-04-03T07:57:06;22.10;57.00
58933;DHT22;44716;51.022;6.818;2023-04-03T07:59:32;22.10;56.90
58933;DHT22;44716;51.022;6.818;2023-04-03T08:01:57;22.00;56.70
58933;DHT22;44716;51.022;6.818;2023-04-03T08:04:23;22.00;54.80
58933;DHT22;44716;51.022;6.818;2023-04-03T08:06:49;21.90;55.20
58933;DHT22;44716;51.022;6.818;2023-04-03T08:09:15;22.00;57.30
58933;DHT22;44716;51.022;6.818;2023-04-03T08:11:41;22.00;55.60
58933;DHT22;44716;51.022;6.818;2023-04-03T08:14:06;22.00;57.00
58933;DHT22;44716;51.022;6.818;2023-04-03T08:16:32;22.00;57.20
58933;DHT22;44716;51.022;6.818;2023-04-03T08:18:57;22.00;57.20
58933;DHT22;44716;51.022;6.818;2023-04-03T08:21:23;22.00;57.30
58933;DHT22;44716;51.022;6.818;2023-04-03T08:23:49;22.00;57.30
58933;DHT22;44716;51.022;6.818;2023-04-03T08:26:19;22.00;56.40
58933;DHT22;44716;51.022;6.818;2023-04-03T08:28:46;21.90;55.10
58933;DHT22;44716;51.022;6.818;2023-04-03T08:31:12;21.90;55.30
58933;DHT22;44716;51.022;6.818;2023-04-03T08:33:39;21.80;55.00
58933;DHT22;44716;51.022;6.818;2023-04-03T08:36:06;21.70;56.60
58933;DHT22;44716;51.022;6.818;2023-04-03T08:38:33;21.80;57.30
58933;DHT22;44716;51.022;6.818;2023-04-03T08:41:00;21.80;56.20
58933;DHT22;44716;51.022;6.818;2023-04-03T08:43:30;21.80;55.00
58933;DHT22;44716;51.022;6.818;2023-04-03T08:45:58;21.80;56.70
58933;DHT22;44716;51.022;6.818;2023-04-03T08:48:31;21.80;56.80
58933;DHT22;44716;51.022;6.818;2023-04-03T08:50:59;21.80;57.10
58933;DHT22;44716;51.022;6.818;2023-04-03T08:53:29;21.80;54.10
58933;DHT22;44716;51.022;6.818;2023-04-03T08:55:58;21.70;57.20
58933;DHT22;44716;51.022;6.818;2023-04-03T08:58:25;21.80;57.00
58933;DHT22;44716;51.022;6.818;2023-04-03T09:01:10;21.80;56.50
58933;DHT22;44716;51.022;6.818;2023-04-03T09:03:40;21.80;57.20
58933;DHT22;44716;51.022;6.818;2023-04-03T09:18:57;21.50;55.10
58933;DHT22;44716;51.022;6.818;2023-04-03T09:21:31;21.50;56.10
58933;DHT22;44716;51.022;6.818;2023-04-03T09:23:59;21.40;56.10
58933;DHT22;44716;51.022;6.818;2023-04-03T09:26:39;21.50;55.10
58933;DHT22;44716;51.022;6.818;2023-04-03T09:29:06;21.50;54.30
58933;DHT22;44716;51.022;6.818;2023-04-03T09:31:37;21.50;56.80
58933;DHT22;44716;51.022;6.818;2023-04-03T09:36:56;21.50;57.20
58933;DHT22;44716;51.022;6.818;2023-04-03T09:39:24;21.40;55.20
58933;DHT22;44716;51.022;6.818;2023-04-03T09:42:03;21.30;55.10
58933;DHT22;44716;51.022;6.818;2023-04-03T09:44:31;21.40;57.10
58933;DHT22;44716;51.022;6.818;2023-04-03T09:46:57;21.40;57.20
58933;DHT22;44716;51.022;6.818;2023-04-03T09:49:23;21.50;54.80
58933;DHT22;44716;51.022;6.818;2023-04-03T09:51:48;21.40;57.00
58933;DHT22;44716;51.022;6.818;2023-04-03T09:54:24;21.50;57.10
58933;DHT22;44716;51.022;6.818;2023-04-03T09:56:51;21.40;57.20
58933;DHT22;44716;51.022;6.818;2023-04-03T09:59:18;21.50;57.30
58933;DHT22;44716;51.022;6.818;2023-04-03T10:04:37;21.50;57.30
58933;DHT22;44716;51.022;6.818;2023-04-03T10:07:03;21.40;57.40
58933;DHT22;44716;51.022;6.818;2023-04-03T10:09:29;21.40;54.40
58933;DHT22;44716;51.022;6.818;2023-04-03T10:14:24;21.40;56.70
58933;DHT22;44716;51.022;6.818;2023-04-03T10:17:14;21.30;54.00
58933;DHT22;44716;51.022;6.818;2023-04-03T10:22:13;21.30;56.10
58933;DHT22;44716;51.022;6.818;2023-04-03T10:30:16;21.30;57.20
58933;DHT22;44716;51.022;6.818;2023-04-03T10:40:44;21.20;55.80
58933;DHT22;44716;51.022;6.818;2023-04-03T10:43:36;21.20;57.50
58933;DHT22;44716;51.022;6.818;2023-04-03T10:54:01;21.20;57.70
58933;DHT22;44716;51.022;6.818;2023-04-03T10:56:35;21.20;56.60
58933;DHT22;44716;51.022;6.818;2023-04-03T10:59:13;21.20;55.90
58933;DHT22;44716;51.022;6.818;2023-04-03T11:01:42;21.30;54.70
58933;DHT22;44716;51.022;6.818;2023-04-03T11:04:09;21.40;54.00
58933;DHT22;44716;51.022;6.818;2023-04-03T11:09:40;21.60;53.00
58933;DHT22;44716;51.022;6.818;2023-04-03T11:12:11;21.60;52.30
58933;DHT22;44716;51.022;6.818;2023-04-03T11:14:41;21.70;52.30
58933;DHT22;44716;51.022;6.818;2023-04-03T11:25:08;21.50;51.90
58933;DHT22;44716;51.022;6.818;2023-04-03T11:27:44;21.50;52.50
58933;DHT22;44716;51.022;6.818;2023-04-03T11:30:17;21.50;53.10
58933;DHT22;44716;51.022;6.818;2023-04-03T11:35:19;21.50;53.00
58933;DHT22;44716;51.022;6.818;2023-04-03T11:37:49;21.50;52.20
58933;DHT22;44716;51.022;6.818;2023-04-03T11:42:46;21.40;52.40
58933;DHT22;44716;51.022;6.818;2023-04-03T11:48:01;21.40;52.40
58933;DHT22;44716;51.022;6.818;2023-04-03T11:52:58;21.30;54.00
58933;DHT22;44716;51.022;6.818;2023-04-03T12:16:02;21.30;55.30
58933;DHT22;44716;51.022;6.818;2023-04-03T12:21:13;21.10;52.00
58933;DHT22;44716;51.022;6.818;2023-04-03T12:26:30;21.10;52.20
58933;DHT22;44716;51.022;6.818;2023-04-03T12:28:57;21.00;52.30
58933;DHT22;44716;51.022;6.818;2023-04-03T12:31:36;21.20;54.70
58933;DHT22;44716;51.022;6.818;2023-04-03T12:42:32;20.90;53.30
58933;DHT22;44716;51.022;6.818;2023-04-03T12:45:00;20.90;52.50
58933;DHT22;44716;51.022;6.818;2023-04-03T12:47:37;20.90;52.40
58933;DHT22;44716;51.022;6.818;2023-04-03T12:50:04;20.90;53.10
58933;DHT22;44716;51.022;6.818;2023-04-03T12:52:44;21.00;53.70
58933;DHT22;44716;51.022;6.818;2023-04-03T12:55:18;20.90;52.30
58933;DHT22;44716;51.022;6.818;2023-04-03T12:57:43;21.00;52.60
58933;DHT22;44716;51.022;6.818;2023-04-03T13:03:05;20.80;51.70
58933;DHT22;44716;51.022;6.818;2023-04-03T13:05:31;20.80;52.20
58933;DHT22;44716;51.022;6.818;2023-04-03T13:08:07;20.80;53.20
58933;DHT22;44716;51.022;6.818;2023-04-03T13:10:43;20.80;52.60
58933;DHT22;44716;51.022;6.818;2023-04-03T13:13:14;20.90;55.20
58933;DHT22;44716;51.022;6.818;2023-04-03T13:15:42;21.00;54.00
58933;DHT22;44716;51.022;6.818;2023-04-03T13:18:27;21.00;52.20
58933;DHT22;44716;51.022;6.818;2023-04-03T13:20:54;21.00;54.70
58933;DHT22;44716;51.022;6.818;2023-04-03T13:23:27;20.90;51.50
58933;DHT22;44716;51.022;6.818;2023-04-03T13:25:54;20.90;51.70
58933;DHT22;44716;51.022;6.818;2023-04-03T13:28:23;20.70;51.50
58933;DHT22;44716;51.022;6.818;2023-04-03T13:30:57;20.80;52.60
58933;DHT22;44716;51.022;6.818;2023-04-03T13:33:26;20.70;51.70
58933;DHT22;44716;51.022;6.818;2023-04-03T13:36:26;20.80;52.40
58933;DHT22;44716;51.022;6.818;2023-04-03T13:38:44;20.90;53.50
58933;DHT22;44716;51.022;6.818;2023-04-03T13:44:15;20.70;53.10
58933;DHT22;44716;51.022;6.818;2023-04-03T13:46:41;20.60;54.80
58933;DHT22;44716;51.022;6.818;2023-04-03T13:49:41;20.60;53.90
58933;DHT22;44716;51.022;6.818;2023-04-03T13:51:58;20.70;54.60
58933;DHT22;44716;51.022;6.818;2023-04-03T13:54:28;20.60;53.30
58933;DHT22;44716;51.022;6.818;2023-04-03T13:56:55;20.60;53.20
58933;DHT22;44716;51.022;6.818;2023-04-03T13:59:24;20.50;52.90
58933;DHT22;44716;51.022;6.818;2023-04-03T14:04:18;20.50;52.90
58933;DHT22;44716;51.022;6.818;2023-04-03T14:06:45;20.40;52.30
58933;DHT22;44716;51.022;6.818;2023-04-03T14:09:11;20.40;53.00
58933;DHT22;44716;51.022;6.818;2023-04-03T14:11:36;20.40;54.50
58933;DHT22;44716;51.022;6.818;2023-04-03T14:14:06;20.40;51.90
58933;DHT22;44716;51.022;6.818;2023-04-03T14:16:32;20.30;54.20
58933;DHT22;44716;51.022;6.818;2023-04-03T14:19:00;20.40;52.30
58933;DHT22;44716;51.022;6.818;2023-04-03T14:21:28;20.30;52.50
58933;DHT22;44716;51.022;6.818;2023-04-03T14:23:54;20.30;52.30
58933;DHT22;44716;51.022;6.818;2023-04-03T14:26:21;20.30;52.70
58933;DHT22;44716;51.022;6.818;2023-04-03T14:28:47;20.40;53.60
58933;DHT22;44716;51.022;6.818;2023-04-03T14:31:13;20.30;51.40
58933;DHT22;44716;51.022;6.818;2023-04-03T14:33:40;20.30;51.50
58933;DHT22;44716;51.022;6.818;2023-04-03T14:36:15;20.30;53.10
58933;DHT22;44716;51.022;6.818;2023-04-03T14:38:42;20.30;51.60
58933;DHT22;44716;51.022;6.818;2023-04-03T14:41:10;20.30;53.30
58933;DHT22;44716;51.022;6.818;2023-04-03T14:43:35;20.50;53.10
58933;DHT22;44716;51.022;6.818;2023-04-03T14:46:01;20.30;52.50
58933;DHT22;44716;51.022;6.818;2023-04-03T14:48:27;20.40;51.80
58933;DHT22;44716;51.022;6.818;2023-04-03T14:50:53;20.30;52.30
58933;DHT22;44716;51.022;6.818;2023-04-03T14:53:19;20.30;53.70
58933;DHT22;44716;51.022;6.818;2023-04-03T14:55:48;20.30;52.10
58933;DHT22;44716;51.022;6.818;2023-04-03T14:58:17;20.30;54.10
58933;DHT22;44716;51.022;6.818;2023-04-03T15:00:43;20.30;52.90
58933;DHT22;44716;51.022;6.818;2023-04-03T15:03:13;20.30;53.40
58933;DHT22;44716;51.022;6.818;2023-04-03T15:05:43;20.30;53.10
58933;DHT22;44716;51.022;6.818;2023-04-03T15:08:20;20.30;55.00
58933;DHT22;44716;51.022;6.818;2023-04-03T15:10:46;20.30;52.80
58933;DHT22;44716;51.022;6.818;2023-04-03T15:13:12;20.30;55.20
58933;DHT22;44716;51.022;6.818;2023-04-03T15:15:38;20.40;55.00
58933;DHT22;44716;51.022;6.818;2023-04-03T15:18:03;20.50;55.20
58933;DHT22;44716;51.022;6.818;2023-04-03T15:20:30;20.60;55.00
58933;DHT22;44716;51.022;6.818;2023-04-03T15:22:58;20.50;55.30
58933;DHT22;44716;51.022;6.818;2023-04-03T15:25:26;20.60;55.40
58933;DHT22;44716;51.022;6.818;2023-04-03T15:27:52;20.60;55.40
58933;DHT22;44716;51.022;6.818;2023-04-03T15:30:18;20.60;55.50
58933;DHT22;44716;51.022;6.818;2023-04-03T15:32:45;20.60;55.50
58933;DHT22;44716;51.022;6.818;2023-04-03T15:35:10;20.60;55.40
58933;DHT22;44716;51.022;6.818;2023-04-03T15:37:36;20.70;54.60
58933;DHT22;44716;51.022;6.818;2023-04-03T15:40:05;20.60;55.30
58933;DHT22;44716;51.022;6.818;2023-04-03T15:42:31;20.70;55.60
58933;DHT22;44716;51.022;6.818;2023-04-03T15:44:59;20.70;55.50
58933;DHT22;44716;51.022;6.818;2023-04-03T15:47:25;20.70;55.10
58933;DHT22;44716;51.022;6.818;2023-04-03T15:49:51;20.70;54.20
58933;DHT22;44716;51.022;6.818;2023-04-03T15:52:17;20.50;53.70
58933;DHT22;44716;51.022;6.818;2023-04-03T15:54:43;20.20;52.90
58933;DHT22;44716;51.022;6.818;2023-04-03T15:57:08;20.00;52.00
58933;DHT22;44716;51.022;6.818;2023-04-03T15:59:37;19.90;51.90
58933;DHT22;44716;51.022;6.818;2023-04-03T16:02:03;19.80;51.80
58933;DHT22;44716;51.022;6.818;2023-04-03T16:04:32;19.80;51.50
58933;DHT22;44716;51.022;6.818;2023-04-03T16:07:00;19.80;51.00
58933;DHT22;44716;51.022;6.818;2023-04-03T16:09:27;19.70;50.90
58933;DHT22;44716;51.022;6.818;2023-04-03T16:11:53;19.70;50.70
58933;DHT22;44716;51.022;6.818;2023-04-03T16:14:20;19.70;50.10
58933;DHT22;44716;51.022;6.818;2023-04-03T16:16:48;19.70;49.70
58933;DHT22;44716;51.022;6.818;2023-04-03T16:19:18;19.60;49.50
58933;DHT22;44716;51.022;6.818;2023-04-03T16:21:48;19.70;49.40
58933;DHT22;44716;51.022;6.818;2023-04-03T16:24:17;19.60;48.70
58933;DHT22;44716;51.022;6.818;2023-04-03T16:26:45;19.60;49.40
58933;DHT22;44716;51.022;6.818;2023-04-03T16:29:11;19.60;48.70
58933;DHT22;44716;51.022;6.818;2023-04-03T16:31:37;19.60;48.70
58933;DHT22;44716;51.022;6.818;2023-04-03T16:34:02;19.60;48.10
58933;DHT22;44716;51.022;6.818;2023-04-03T16:36:38;19.50;48.20
58933;DHT22;44716;51.022;6.818;2023-04-03T16:39:04;19.50;48.10
58933;DHT22;44716;51.022;6.818;2023-04-03T16:41:31;19.50;47.80
58933;DHT22;44716;51.022;6.818;2023-04-03T16:43:57;19.50;47.60
58933;DHT22;44716;51.022;6.818;2023-04-03T16:46:24;19.50;47.70
58933;DHT22;44716;51.022;6.818;2023-04-03T16:48:57;19.50;47.80
58933;DHT22;44716;51.022;6.818;2023-04-03T16:51:22;19.50;47.40
58933;DHT22;44716;51.022;6.818;2023-04-03T16:53:54;19.50;47.90
58933;DHT22;44716;51.022;6.818;2023-04-03T16:56:20;19.50;47.60
58933;DHT22;44716;51.022;6.818;2023-04-03T16:58:47;19.70;52.20
58933;DHT22;44716;51.022;6.818;2023-04-03T17:01:14;19.70;48.60
58933;DHT22;44716;51.022;6.818;2023-04-03T17:03:41;19.60;48.40
58933;DHT22;44716;51.022;6.818;2023-04-03T17:06:10;19.50;47.40
58933;DHT22;44716;51.022;6.818;2023-04-03T17:08:41;19.50;47.70
58933;DHT22;44716;51.022;6.818;2023-04-03T17:11:10;19.40;47.30
58933;DHT22;44716;51.022;6.818;2023-04-03T17:13:38;19.50;47.50
58933;DHT22;44716;51.022;6.818;2023-04-03T17:16:04;19.40;46.90
58933;DHT22;44716;51.022;6.818;2023-04-03T17:18:32;19.40;47.00
58933;DHT22;44716;51.022;6.818;2023-04-03T17:20:58;19.40;46.90
58933;DHT22;44716;51.022;6.818;2023-04-03T17:23:26;19.40;46.80
58933;DHT22;44716;51.022;6.818;2023-04-03T17:25:57;19.40;46.40
58933;DHT22;44716;51.022;6.818;2023-04-03T17:28:24;19.40;46.00
58933;DHT22;44716;51.022;6.818;2023-04-03T17:30:56;19.30;46.10